createdAt,value
2022-09-11T00:02:19.898Z,13.90
2022-09-11T00:04:46.981Z,13.43
2022-09-11T00:07:13.991Z,13.82
2022-09-11T00:09:40.975Z,12.07
2022-09-11T00:12:08.046Z,11.60
2022-09-11T00:14:35.495Z,12.98
2022-09-11T00:17:02.598Z,13.07
2022-09-11T00:19:29.646Z,13.65
2022-09-11T00:21:57.214Z,12.55
2022-09-11T00:24:24.574Z,13.05
2022-09-11T00:26:51.638Z,13.18
2022-09-11T00:29:19.606Z,12.85
2022-09-11T00:31:46.955Z,12.88
2022-09-11T00:34:14.089Z,11.48
2022-09-11T00:36:44.214Z,12.02
2022-09-11T00:39:12.803Z,14.35
2022-09-11T00:41:43.216Z,12.25
2022-09-11T00:44:17.924Z,12.95
2022-09-11T00:46:48.620Z,12.70
2022-09-11T00:49:40.228Z,12.95
2022-09-11T00:52:19.852Z,13.25
2022-09-11T00:54:54.186Z,13.23
2022-09-11T00:57:24.866Z,13.30
2022-09-11T00:59:55.770Z,11.98
2022-09-11T01:02:27.314Z,14.05
2022-09-11T01:04:56.749Z,12.80
2022-09-11T01:07:26.486Z,14.07
2022-09-11T01:09:55.750Z,13.32
2022-09-11T01:12:49.965Z,13.52
2022-09-11T01:15:20.027Z,12.75
2022-09-11T01:17:55.153Z,14.23
2022-09-11T01:20:45.007Z,13.23
2022-09-11T01:24:02.027Z,13.60
2022-09-11T01:26:53.439Z,13.05
2022-09-11T01:29:39.203Z,13.60
2022-09-11T01:32:19.597Z,15.50
2022-09-11T01:34:55.903Z,15.10
2022-09-11T01:37:33.067Z,13.48
2022-09-11T01:40:05.374Z,14.70
2022-09-11T01:42:39.502Z,15.65
2022-09-11T01:45:07.447Z,14.75
2022-09-11T01:47:37.755Z,15.10
2022-09-11T01:50:18.077Z,15.15
2022-09-11T01:52:50.389Z,14.43
2022-09-11T01:55:24.019Z,15.00
2022-09-11T02:00:29.233Z,14.77
2022-09-11T02:03:03.877Z,14.27
2022-09-11T02:05:37.037Z,14.85
2022-09-11T02:08:34.553Z,14.75
2022-09-11T02:11:07.058Z,14.15
2022-09-11T02:13:42.422Z,15.45
2022-09-11T02:16:21.685Z,15.80
2022-09-11T02:19:03.277Z,14.90
2022-09-11T02:21:32.263Z,14.60
2022-09-11T02:24:00.905Z,15.10
2022-09-11T02:26:31.483Z,14.98
2022-09-11T02:28:59.763Z,16.65
2022-09-11T02:31:27.925Z,15.77
2022-09-11T02:33:55.820Z,16.65
2022-09-11T02:36:31.547Z,16.42
2022-09-11T02:39:31.185Z,15.05
2022-09-11T02:42:31.057Z,15.80
2022-09-11T02:45:19.657Z,16.30
2022-09-11T02:48:13.730Z,19.05
2022-09-11T02:51:10.619Z,19.05
2022-09-11T02:54:17.978Z,19.45
2022-09-11T02:56:50.345Z,20.33
2022-09-11T02:59:24.282Z,19.63
2022-09-11T03:01:55.081Z,19.90
2022-09-11T03:04:25.421Z,20.08
2022-09-11T03:06:54.353Z,20.30
2022-09-11T03:09:21.501Z,18.95
2022-09-11T03:11:53.051Z,20.55
2022-09-11T03:14:20.202Z,19.27
2022-09-11T03:16:48.289Z,18.33
2022-09-11T03:19:15.493Z,18.60
2022-09-11T03:21:42.932Z,19.83
2022-09-11T03:24:10.279Z,21.48
2022-09-11T03:26:38.225Z,20.77
2022-09-11T03:29:05.851Z,21.77
2022-09-11T03:31:37.312Z,20.10
2022-09-11T03:34:06.392Z,19.33
2022-09-11T03:36:34.383Z,20.13
2022-09-11T03:39:02.189Z,21.55
2022-09-11T03:41:30.818Z,22.27
2022-09-11T03:43:58.123Z,21.48
2022-09-11T03:46:25.528Z,21.42
2022-09-11T03:48:53.222Z,21.52
2022-09-11T03:51:21.120Z,21.30
2022-09-11T03:53:48.196Z,21.75
2022-09-11T03:56:15.983Z,19.20
2022-09-11T03:58:48.210Z,18.70
2022-09-11T04:01:18.988Z,22.40
2022-09-11T04:03:46.538Z,21.63
2022-09-11T04:06:22.041Z,21.85
2022-09-11T04:08:49.652Z,21.65
2022-09-11T04:11:17.466Z,20.85
2022-09-11T04:13:45.586Z,19.65
2022-09-11T04:16:18.387Z,19.88
2022-09-11T04:18:49.361Z,20.35
2022-09-11T04:21:18.324Z,19.95
2022-09-11T04:23:54.278Z,21.02
2022-09-11T04:26:24.812Z,19.02
2022-09-11T04:28:57.118Z,20.45
2022-09-11T04:31:26.210Z,20.40
2022-09-11T04:33:57.540Z,18.20
2022-09-11T04:36:27.210Z,19.98
2022-09-11T04:38:57.666Z,18.42
2022-09-11T04:41:25.309Z,19.65
2022-09-11T04:44:02.449Z,19.50
2022-09-11T04:46:32.252Z,20.50
2022-09-11T04:49:02.142Z,20.17
2022-09-11T04:51:34.692Z,20.23
2022-09-11T04:54:02.762Z,19.80
2022-09-11T04:56:37.770Z,21.83
2022-09-11T04:59:15.804Z,20.70
2022-09-11T05:01:47.100Z,21.42
2022-09-11T05:04:21.740Z,20.17
2022-09-11T05:06:50.116Z,21.45
2022-09-11T05:09:18.315Z,21.02
2022-09-11T05:11:47.288Z,21.73
2022-09-11T05:14:15.355Z,19.50
2022-09-11T05:16:45.424Z,22.35
2022-09-11T05:19:13.663Z,22.90
2022-09-11T05:21:41.489Z,21.77
2022-09-11T05:24:08.486Z,22.92
2022-09-11T05:26:37.608Z,20.38
2022-09-11T05:29:15.954Z,20.98
2022-09-11T05:31:48.160Z,21.52
2022-09-11T05:34:20.432Z,21.85
2022-09-11T05:36:48.099Z,22.45
2022-09-11T05:39:15.120Z,22.75
2022-09-11T05:41:42.517Z,23.13
2022-09-11T05:44:09.476Z,23.67
2022-09-11T05:46:38.016Z,22.45
2022-09-11T05:49:06.311Z,21.35
2022-09-11T05:51:35.730Z,21.52
2022-09-11T05:54:04.294Z,21.80
2022-09-11T05:56:32.525Z,22.30
2022-09-11T05:59:03.431Z,21.10
2022-09-11T06:01:37.686Z,23.10
2022-09-11T06:04:13.489Z,23.55
2022-09-11T06:06:43.736Z,24.33
2022-09-11T06:09:10.803Z,21.90
2022-09-11T06:11:37.934Z,22.77
2022-09-11T06:14:05.001Z,23.52
2022-09-11T06:16:32.629Z,22.95
2022-09-11T06:19:07.582Z,22.98
2022-09-11T06:21:35.293Z,22.67
2022-09-11T06:24:08.650Z,23.63
2022-09-11T06:26:36.012Z,23.75
2022-09-11T06:29:03.201Z,24.20
2022-09-11T06:31:31.253Z,23.02
2022-09-11T06:33:58.283Z,23.73
2022-09-11T06:36:27.003Z,24.83
2022-09-11T06:38:58.162Z,25.85
2022-09-11T06:41:28.112Z,24.30
2022-09-11T06:44:03.824Z,24.48
2022-09-11T06:46:31.469Z,23.88
2022-09-11T06:49:01.226Z,24.75
2022-09-11T06:51:29.741Z,24.48
2022-09-11T06:54:01.930Z,24.20
2022-09-11T06:56:33.263Z,23.27
2022-09-11T06:59:01.164Z,22.77
2022-09-11T07:01:29.870Z,23.85
2022-09-11T07:04:02.606Z,23.08
2022-09-11T07:06:31.949Z,25.27
2022-09-11T07:09:02.440Z,23.73
2022-09-11T07:11:47.025Z,25.38
2022-09-11T07:14:14.238Z,25.60
2022-09-11T07:16:44.067Z,24.35
2022-09-11T07:19:13.483Z,23.85
2022-09-11T07:21:41.727Z,24.67
2022-09-11T07:24:09.261Z,24.58
2022-09-11T07:26:40.313Z,23.95
2022-09-11T07:29:29.297Z,22.40
2022-09-11T07:31:58.563Z,22.73
2022-09-11T07:34:26.877Z,22.67
2022-09-11T07:36:55.382Z,24.13
2022-09-11T07:39:25.281Z,21.42
2022-09-11T07:42:14.910Z,22.00
2022-09-11T07:44:42.859Z,23.95
2022-09-11T07:47:10.434Z,22.30
2022-09-11T07:49:42.580Z,22.10
2022-09-11T07:52:12.626Z,21.27
2022-09-11T07:54:48.408Z,20.88
2022-09-11T07:57:16.434Z,20.25
2022-09-11T07:59:46.260Z,20.65
2022-09-11T08:02:14.067Z,20.25
2022-09-11T08:04:42.280Z,19.63
2022-09-11T08:07:10.432Z,20.40
2022-09-11T08:09:37.426Z,20.88
2022-09-11T08:12:05.802Z,19.83
2022-09-11T08:14:36.845Z,17.77
2022-09-11T08:17:16.326Z,16.88
2022-09-11T08:19:43.341Z,18.38
2022-09-11T08:22:11.722Z,17.17
2022-09-11T08:24:43.283Z,18.35
2022-09-11T08:27:13.570Z,17.98
2022-09-11T08:29:42.461Z,17.15
2022-09-11T08:32:10.224Z,17.45
2022-09-11T08:34:38.414Z,17.77
2022-09-11T08:37:05.698Z,18.02
2022-09-11T08:39:34.947Z,18.83
2022-09-11T08:42:09.398Z,20.20
2022-09-11T08:47:19.074Z,17.90
2022-09-11T08:50:01.373Z,19.35
2022-09-11T08:52:29.660Z,19.35
2022-09-11T08:54:59.243Z,16.73
2022-09-11T08:57:47.260Z,17.38
2022-09-11T09:00:20.789Z,18.90
2022-09-11T09:03:12.441Z,11.10
2022-09-11T09:05:52.594Z,16.83
2022-09-11T09:08:39.062Z,16.05
2022-09-11T09:11:20.413Z,15.55
2022-09-11T09:14:08.408Z,15.13
2022-09-11T09:16:35.559Z,14.02
2022-09-11T09:19:20.139Z,13.32
2022-09-11T09:21:52.692Z,15.73
2022-09-11T09:24:20.474Z,13.65
2022-09-11T09:26:53.329Z,12.68
2022-09-11T09:29:23.489Z,11.77
2022-09-11T09:31:57.395Z,11.02
2022-09-11T09:34:27.779Z,10.75
2022-09-11T09:37:06.126Z,11.27
2022-09-11T09:39:36.398Z,11.27
2022-09-11T09:42:33.520Z,11.40
2022-09-11T09:45:48.580Z,11.18
2022-09-11T09:48:16.360Z,10.65
2022-09-11T09:50:46.453Z,10.80
2022-09-11T09:53:33.940Z,11.23
2022-09-11T09:56:04.681Z,10.10
2022-09-11T09:58:42.066Z,10.55
2022-09-11T10:01:43.955Z,9.40
2022-09-11T10:04:26.942Z,10.73
2022-09-11T10:07:05.432Z,11.05
2022-09-11T10:09:33.326Z,9.65
2022-09-11T10:12:04.062Z,9.18
2022-09-11T10:14:50.911Z,9.70
2022-09-11T10:17:30.203Z,10.07
2022-09-11T10:20:26.613Z,9.50
2022-09-11T10:22:55.158Z,8.98
2022-09-11T10:25:26.647Z,9.43
2022-09-11T10:28:11.409Z,8.80
2022-09-11T10:30:40.215Z,7.68
2022-09-11T10:33:26.652Z,8.23
2022-09-11T10:35:56.024Z,8.02
2022-09-11T10:38:41.522Z,8.07
2022-09-11T10:41:14.922Z,9.15
2022-09-11T10:43:45.408Z,7.93
2022-09-11T10:46:18.157Z,7.80
2022-09-11T10:48:58.771Z,7.93
2022-09-11T10:51:29.682Z,7.22
2022-09-11T10:54:14.295Z,7.47
2022-09-11T10:57:00.284Z,7.82
2022-09-11T10:59:40.743Z,8.60
2022-09-11T11:02:19.533Z,8.93
2022-09-11T11:04:47.843Z,8.30
2022-09-11T11:07:51.295Z,8.95
2022-09-11T11:10:56.161Z,10.77
2022-09-11T11:13:49.263Z,12.43
2022-09-11T11:16:16.191Z,11.82
2022-09-11T11:18:57.095Z,11.82
2022-09-11T11:21:48.363Z,12.93
2022-09-11T11:24:39.812Z,11.13
2022-09-11T11:27:44.835Z,9.65
2022-09-11T11:30:17.176Z,9.88
2022-09-11T11:33:32.212Z,10.55
2022-09-11T11:36:07.613Z,10.38
2022-09-11T11:38:43.544Z,11.10
2022-09-11T11:41:28.024Z,9.57
2022-09-11T11:43:57.613Z,9.98
2022-09-11T11:46:33.127Z,9.60
2022-09-11T11:49:04.482Z,9.15
2022-09-11T11:51:44.664Z,9.50
2022-09-11T11:54:20.271Z,9.80
2022-09-11T11:56:51.773Z,9.00
2022-09-11T11:59:31.955Z,10.30
2022-09-11T12:02:04.232Z,9.82
2022-09-11T12:04:46.185Z,11.43
2022-09-11T12:07:15.271Z,10.80
2022-09-11T12:09:50.480Z,9.35
2022-09-11T12:12:19.454Z,9.60
2022-09-11T12:14:51.955Z,9.23
2022-09-11T12:17:25.553Z,8.93
2022-09-11T12:20:10.879Z,9.00
2022-09-11T12:22:42.847Z,8.27
2022-09-11T12:25:18.570Z,9.02
2022-09-11T12:27:52.147Z,8.77
2022-09-11T12:30:20.308Z,8.82
2022-09-11T12:32:47.634Z,8.25
2022-09-11T12:35:24.724Z,7.00
2022-09-11T12:38:35.396Z,8.57
2022-09-11T12:41:12.983Z,7.88
2022-09-11T12:43:41.241Z,8.85
2022-09-11T12:46:13.292Z,7.40
2022-09-11T12:48:44.040Z,7.85
2022-09-11T12:51:22.588Z,8.20
2022-09-11T12:53:53.004Z,8.15
2022-09-11T12:56:23.962Z,7.68
2022-09-11T12:59:10.896Z,7.68
2022-09-11T13:01:44.047Z,8.10
2022-09-11T13:04:12.147Z,7.03
2022-09-11T13:07:07.108Z,6.85
2022-09-11T13:09:45.787Z,7.40
2022-09-11T13:12:18.969Z,7.43
2022-09-11T13:14:51.682Z,7.47
2022-09-11T13:17:30.128Z,5.75
2022-09-11T13:20:21.743Z,5.72
2022-09-11T13:22:54.841Z,5.88
2022-09-11T13:25:28.510Z,6.00
2022-09-11T13:28:01.105Z,6.50
2022-09-11T13:33:11.739Z,4.93
2022-09-11T13:35:45.016Z,4.75
2022-09-11T13:38:48.347Z,4.82
2022-09-11T13:41:19.892Z,5.22
2022-09-11T13:43:59.236Z,4.68
2022-09-11T13:46:34.724Z,5.72
2022-09-11T13:49:10.923Z,5.32
2022-09-11T13:51:43.763Z,5.95
2022-09-11T13:54:30.797Z,5.60
2022-09-11T13:56:57.741Z,5.25
2022-09-11T13:59:49.272Z,5.95
2022-09-11T14:02:34.761Z,6.13
2022-09-11T14:05:25.053Z,6.80
2022-09-11T14:08:07.484Z,6.18
2022-09-11T14:10:43.573Z,5.68
2022-09-11T14:13:19.877Z,7.10
2022-09-11T14:15:55.251Z,7.13
2022-09-11T14:18:34.177Z,6.35
2022-09-11T14:21:05.414Z,6.88
2022-09-11T14:23:41.434Z,6.80
2022-09-11T14:26:15.943Z,7.18
2022-09-11T14:29:06.921Z,6.50
2022-09-11T14:31:38.401Z,7.00
2022-09-11T14:34:17.763Z,5.82
2022-09-11T14:36:47.078Z,5.72
2022-09-11T14:39:22.400Z,4.28
2022-09-11T14:41:49.371Z,4.80
2022-09-11T14:44:17.649Z,3.50
2022-09-11T14:46:44.706Z,4.18
2022-09-11T14:49:12.614Z,3.63
2022-09-11T14:51:40.893Z,3.13
2022-09-11T14:54:15.124Z,3.67
2022-09-11T14:56:42.684Z,3.65
2022-09-11T14:59:10.102Z,3.10
2022-09-11T15:01:37.096Z,3.53
2022-09-11T15:04:04.251Z,3.63
2022-09-11T15:06:31.396Z,3.53
2022-09-11T15:09:01.404Z,3.30
2022-09-11T15:11:28.502Z,3.42
2022-09-11T15:14:13.820Z,3.47
2022-09-11T15:16:43.413Z,3.85
2022-09-11T15:19:10.546Z,3.67
2022-09-11T15:21:38.088Z,3.30
2022-09-11T15:24:05.801Z,4.03
2022-09-11T15:26:34.161Z,3.80
2022-09-11T15:29:01.129Z,3.65
2022-09-11T15:31:28.780Z,4.25
2022-09-11T15:33:57.056Z,3.67
2022-09-11T15:36:26.044Z,3.90
2022-09-11T15:38:54.244Z,3.30
2022-09-11T15:41:22.050Z,3.30
2022-09-11T15:43:50.524Z,3.60
2022-09-11T15:46:19.070Z,3.08
2022-09-11T15:48:48.211Z,3.92
2022-09-11T15:51:20.633Z,4.05
2022-09-11T15:53:48.538Z,3.47
2022-09-11T15:56:22.715Z,3.05
2022-09-11T15:58:52.856Z,3.50
2022-09-11T16:01:22.632Z,3.60
2022-09-11T16:03:54.560Z,3.08
2022-09-11T16:06:23.374Z,3.85
2022-09-11T16:08:51.995Z,3.67
2022-09-11T16:11:19.432Z,4.28
2022-09-11T16:13:49.903Z,3.92
2022-09-11T16:16:17.196Z,4.57
2022-09-11T16:18:44.894Z,4.10
2022-09-11T16:21:16.234Z,4.38
2022-09-11T16:23:44.269Z,4.88
2022-09-11T16:26:20.584Z,4.57
2022-09-11T16:28:48.192Z,5.38
2022-09-11T16:31:15.507Z,4.82
2022-09-11T16:33:44.310Z,5.00
2022-09-11T16:36:19.714Z,5.25
2022-09-11T16:38:48.295Z,5.90
2022-09-11T16:41:18.795Z,4.85
2022-09-11T16:43:47.636Z,4.07
2022-09-11T16:46:18.237Z,4.72
2022-09-11T16:48:46.393Z,3.90
2022-09-11T16:51:16.475Z,4.70
2022-09-11T16:53:43.641Z,5.57
2022-09-11T16:56:13.228Z,5.53
2022-09-11T16:58:42.074Z,5.03
2022-09-11T17:01:14.596Z,5.65
2022-09-11T17:03:43.065Z,6.38
2022-09-11T17:06:11.131Z,5.03
2022-09-11T17:08:39.165Z,5.93
2022-09-11T17:11:09.597Z,6.07
2022-09-11T17:13:36.969Z,6.53
2022-09-11T17:16:06.472Z,6.00
2022-09-11T17:18:33.520Z,5.90
2022-09-11T17:21:06.049Z,6.20
2022-09-11T17:26:15.103Z,6.53
2022-09-11T17:28:43.743Z,6.63
2022-09-11T17:31:14.361Z,6.18
2022-09-11T17:33:42.234Z,6.43
2022-09-11T17:36:11.432Z,7.15
2022-09-11T17:38:39.514Z,7.43
2022-09-11T17:41:08.138Z,7.50
2022-09-11T17:43:36.558Z,5.97
2022-09-11T17:46:15.504Z,6.35
2022-09-11T17:48:43.350Z,6.70
2022-09-11T17:51:12.990Z,7.35
2022-09-11T17:53:42.727Z,5.88
2022-09-11T17:56:14.016Z,7.38
2022-09-11T17:58:42.664Z,6.32
2022-09-11T18:01:13.620Z,6.82
2022-09-11T18:03:43.255Z,6.65
2022-09-11T18:06:37.497Z,7.07
2022-09-11T18:09:15.087Z,6.93
2022-09-11T18:11:45.105Z,7.10
2022-09-11T18:14:13.760Z,6.40
2022-09-11T18:16:44.123Z,8.02
2022-09-11T18:19:12.107Z,6.72
2022-09-11T18:21:39.461Z,7.03
2022-09-11T18:24:09.807Z,6.50
2022-09-11T18:26:40.081Z,6.20
2022-09-11T18:29:10.648Z,5.97
2022-09-11T18:31:43.719Z,6.15
2022-09-11T18:34:12.983Z,6.22
2022-09-11T18:36:40.019Z,6.30
2022-09-11T18:39:07.079Z,6.45
2022-09-11T18:41:37.154Z,6.30
2022-09-11T18:44:08.609Z,6.05
2022-09-11T18:46:37.292Z,6.05
2022-09-11T18:49:04.858Z,5.90
2022-09-11T18:51:32.396Z,6.63
2022-09-11T18:54:00.245Z,7.38
2022-09-11T18:56:28.477Z,7.32
2022-09-11T18:58:55.970Z,6.60
2022-09-11T19:01:25.642Z,7.97
2022-09-11T19:03:53.485Z,7.03
2022-09-11T19:06:25.003Z,7.13
2022-09-11T19:08:53.345Z,6.68
2022-09-11T19:11:23.816Z,6.90
2022-09-11T19:13:52.695Z,6.22
2022-09-11T19:16:21.774Z,6.70
2022-09-11T19:18:49.337Z,7.10
2022-09-11T19:21:22.191Z,6.57
2022-09-11T19:23:53.484Z,6.93
2022-09-11T19:26:24.192Z,6.03
2022-09-11T19:28:52.097Z,6.30
2022-09-11T19:31:21.335Z,6.53
2022-09-11T19:33:48.503Z,6.85
2022-09-11T19:36:17.720Z,6.85
2022-09-11T19:38:46.509Z,6.90
2022-09-11T19:41:17.710Z,7.03
2022-09-11T19:43:45.481Z,7.10
2022-09-11T19:46:21.267Z,7.38
2022-09-11T19:48:48.722Z,6.50
2022-09-11T19:51:21.193Z,6.90
2022-09-11T19:53:49.356Z,6.85
2022-09-11T19:56:17.218Z,7.05
2022-09-11T19:58:45.118Z,6.93
2022-09-11T20:01:24.034Z,7.15
2022-09-11T20:03:53.106Z,6.57
2022-09-11T20:06:23.597Z,6.82
2022-09-11T20:08:59.186Z,7.03
2022-09-11T20:11:38.999Z,6.95
2022-09-11T20:14:06.294Z,7.00
2022-09-11T20:16:33.598Z,7.55
2022-09-11T20:19:09.242Z,6.78
2022-09-11T20:21:36.328Z,7.35
2022-09-11T20:24:06.104Z,7.53
2022-09-11T20:26:33.598Z,6.60
2022-09-11T20:29:08.994Z,7.28
2022-09-11T20:31:47.439Z,7.28
2022-09-11T20:34:18.677Z,8.05
2022-09-11T20:36:45.732Z,7.88
2022-09-11T20:39:13.928Z,7.00
2022-09-11T20:41:41.192Z,7.90
2022-09-11T20:44:08.662Z,6.93
2022-09-11T20:46:35.817Z,7.95
2022-09-11T20:49:04.208Z,6.70
2022-09-11T20:51:32.495Z,7.50
2022-09-11T20:54:00.513Z,6.68
2022-09-11T20:56:28.383Z,6.90
2022-09-11T20:58:56.417Z,6.80
2022-09-11T21:01:25.780Z,7.38
2022-09-11T21:03:55.275Z,6.70
2022-09-11T21:06:26.179Z,6.95
2022-09-11T21:08:55.533Z,6.95
2022-09-11T21:11:24.372Z,7.07
2022-09-11T21:13:51.784Z,7.70
2022-09-11T21:16:19.874Z,8.18
2022-09-11T21:18:55.857Z,6.82
2022-09-11T21:21:24.758Z,7.07
2022-09-11T21:23:56.689Z,7.13
2022-09-11T21:26:26.075Z,6.95
2022-09-11T21:28:53.112Z,6.65
2022-09-11T21:31:20.117Z,6.65
2022-09-11T21:33:47.294Z,7.13
2022-09-11T21:36:14.723Z,6.65
2022-09-11T21:38:41.783Z,6.93
2022-09-11T21:41:10.804Z,7.50
2022-09-11T21:43:38.536Z,6.63
2022-09-11T21:46:07.768Z,6.93
2022-09-11T21:48:36.365Z,6.85
2022-09-11T21:51:09.625Z,7.53
2022-09-11T21:53:40.894Z,6.22
2022-09-11T21:56:19.879Z,6.82
2022-09-11T21:58:48.616Z,6.57
2022-09-11T22:01:15.768Z,6.80
2022-09-11T22:03:43.285Z,7.18
2022-09-11T22:06:11.633Z,7.22
2022-09-11T22:08:41.056Z,7.32
2022-09-11T22:11:09.418Z,7.15
2022-09-11T22:13:36.894Z,6.75
2022-09-11T22:16:07.797Z,6.30
2022-09-11T22:18:37.253Z,7.03
2022-09-11T22:21:04.978Z,6.50
2022-09-11T22:23:32.634Z,6.20
2022-09-11T22:26:02.661Z,6.30
2022-09-11T22:28:29.871Z,8.35
2022-09-11T22:30:56.888Z,6.18
2022-09-11T22:33:24.385Z,6.55
2022-09-11T22:35:51.394Z,5.78
2022-09-11T22:38:18.552Z,6.85
2022-09-11T22:40:51.775Z,6.50
2022-09-11T22:43:19.049Z,5.78
2022-09-11T22:45:51.182Z,6.50
2022-09-11T22:48:18.458Z,5.25
2022-09-11T22:50:45.484Z,6.57
2022-09-11T22:53:12.498Z,6.10
2022-09-11T22:55:46.638Z,6.47
2022-09-11T22:58:13.841Z,6.43
2022-09-11T23:00:42.104Z,6.63
2022-09-11T23:03:09.413Z,6.25
2022-09-11T23:06:14.841Z,6.68
2022-09-11T23:08:42.389Z,6.88
2022-09-11T23:11:11.125Z,6.18
2022-09-11T23:13:38.201Z,5.78
2022-09-11T23:16:13.837Z,6.75
2022-09-11T23:18:41.744Z,7.10
2022-09-11T23:21:09.838Z,5.93
2022-09-11T23:23:40.943Z,6.20
2022-09-11T23:26:10.546Z,6.10
2022-09-11T23:28:37.991Z,6.32
2022-09-11T23:31:24.739Z,7.25
2022-09-11T23:33:54.134Z,6.40
2022-09-11T23:36:21.724Z,6.40
2022-09-11T23:38:50.286Z,6.28
2022-09-11T23:41:18.051Z,6.28
2022-09-11T23:43:45.735Z,5.72
2022-09-11T23:46:13.061Z,6.43
2022-09-11T23:48:40.920Z,5.95
2022-09-11T23:51:08.521Z,6.38
2022-09-11T23:53:36.825Z,6.25
2022-09-11T23:56:04.375Z,5.65
2022-09-11T23:58:31.388Z,6.10
